Thursday, November 23, 2017, 2:09 AM EST
Back to Local

KART, Watertown International Airport

Location: Dexter, NY, United States Lat: 43.983
Local Time: 2:09 AM EST ( 7:09 GMT) Lon: -76.033
Time Zone: US/Eastern Elev: 324 ft

Show me the last for .
Show Decoded

2017-11-23 01:07 METAR KART 230607Z AUTO 06006KT 10SM OVC029 M04/M08 A3015 RMK AO2 T10441083 =
2017-11-23 00:56 METAR KART 230556Z AUTO 05006KT 10SM OVC030 M04/M08 A3015 RMK AO2 SLP215
                 T10441078 10000 21044 58005 =
2017-11-23 00:49 METAR KART 230549Z AUTO 06006KT 10SM OVC030 M04/M08 A3015 RMK AO2 T10441078 =
2017-11-23 00:06 METAR KART 230506Z AUTO 03005KT 10SM OVC028 M04/M08 A3017 RMK AO2 T10391083 =
2017-11-22 23:56 METAR KART 230456Z AUTO 02006KT 10SM OVC030 M04/M08 A3017 RMK AO2 SLP221
                 T10391078 400941039 =
2017-11-22 23:30 METAR KART 230430Z AUTO 04010KT 10SM OVC030 M04/M08 A3017 RMK AO2 T10391078 =
2017-11-22 22:56 METAR KART 230356Z AUTO 01007KT 10SM OVC029 M03/M07 A3017 RMK AO2 SLP222
                 T10331072 =
2017-11-22 22:15 METAR KART 230315Z AUTO 02008KT 10SM OVC028 M03/M07 A3017 RMK AO2 T10281067 =
2017-11-22 22:03 METAR KART 230303Z AUTO 01005KT 10SM SCT024 OVC030 M02/M06 A3017 RMK AO2
                 T10221061 =
2017-11-22 21:56 METAR KART 230256Z AUTO 01008KT 10SM SCT024 OVC029 M02/M06 A3017 RMK AO2 SLP220
                 T10221061 53007 =
2017-11-22 20:56 METAR KART 230156Z AUTO 31008KT 10SM OVC029 M02/M06 A3016 RMK AO2 SLP217
                 T10171056 =
2017-11-22 20:20 METAR KART 230120Z AUTO 32009KT 10SM SCT021 OVC029 M01/M04 A3016 RMK AO2
                 T10111044 =
2017-11-22 19:56 METAR KART 230056Z AUTO 31013KT 10SM OVC034 M01/M04 A3015 RMK AO2 SLP216
                 T10061044 =
2017-11-22 18:56 METAR KART 222356Z AUTO 34006KT 10SM OVC036 00/M03 A3015 RMK AO2 SLP212 60000
                 T00001033 10017 21006 51016 =
2017-11-22 17:56 METAR KART 222256Z AUTO 34004KT 10SM OVC034 00/M03 A3014 RMK AO2 SLP210
                 T00001033 =
2017-11-22 16:56 METAR KART 222156Z AUTO 01005KT 10SM SCT021 OVC044 00/M03 A3012 RMK AO2 SLP204
                 T00001028 =
2017-11-22 15:56 METAR KART 222056Z AUTO 36006KT 10SM OVC020 00/M02 A3010 RMK AO2 SLP196 60000
                 T00001022 53023 =
2017-11-22 15:23 METAR KART 222023Z AUTO 35007KT 10SM BKN022 OVC047 01/M02 A3009 RMK AO2
                 T00061022 =
2017-11-22 14:56 METAR KART 221956Z AUTO 34009KT 10SM OVC041 01/M02 A3007 RMK AO2 SLP189
                 T00061017 =
2017-11-22 14:32 METAR KART 221932Z AUTO 35008KT 10SM SCT014 BKN034 OVC043 01/M01 A3007 RMK AO2
                 T00061011 =
2017-11-22 14:21 METAR KART 221921Z AUTO 35007KT 10SM BKN014 OVC019 01/M01 A3006 RMK AO2
                 T00061006 =
2017-11-22 13:56 METAR KART 221856Z AUTO 35007KT 10SM SCT015 BKN026 OVC043 01/M01 A3005 RMK AO2
                 RAE00UPB00E11SNB11E33 SLP180 P0000 T00061011 =
2017-11-22 13:31 METAR KART 221831Z AUTO 35010KT 3SM -SN BR SCT012 BKN024 OVC043 01/M01 A3004 RMK
                 AO2 RAE00UPB00E11SNB11 P0000 T00061006 =
2017-11-22 13:29 METAR KART 221829Z AUTO 35010KT 1 1/4SM -SN BR FEW009 BKN020 OVC043 01/M01 A3004
                 RMK AO2 RAE00UPB00E11SNB11 P0000 T00061006 =
2017-11-22 13:24 METAR KART 221824Z AUTO 35010KT 1/2SM -SN FG SCT009 BKN014 OVC027 00/M01 A3004
                 RMK AO2 RAE00UPB00E11SNB11 P0000 T00001006 =
2017-11-22 13:17 METAR KART 221817Z AUTO 35010KT 1 1/4SM -SN BR SCT009 OVC014 01/M01 A3004 RMK
                 AO2 VIS 1/4V5 RAE00UPB00E11SNB11 P0000 T00061006 =
2017-11-22 13:03 METAR KART 221803Z AUTO 34010KT 8SM UP BKN009 BKN014 OVC043 01/01 A3004 RMK AO2
                 RAE00UPB00 P0000 T00110006 =
2017-11-22 12:56 METAR KART 221756Z AUTO 35010KT 5SM -RA BR BKN010 BKN014 OVC043 02/01 A3003 RMK
                 AO2 UPB45E51RAB51 SLP172 P0000 60001 T00170006 10033 20011 53002 =
2017-11-22 12:53 METAR KART 221753Z AUTO 01011KT 5SM -RA BR SCT010 BKN014 OVC043 02/01 A3003 RMK
                 AO2 UPB45E51RAB51 P0000 =
2017-11-22 11:56 METAR KART 221656Z AUTO 29008KT 10SM BKN039 OVC047 03/00 A3002 RMK AO2 SLP168
                 T00280000 =
2017-11-22 10:56 METAR KART 221556Z AUTO 31008KT 10SM SCT024 SCT032 OVC041 03/00 A3002 RMK AO2
                 SLP169 T00280000 =
2017-11-22 10:54 METAR KART 221554Z AUTO 31006KT 10SM SCT024 SCT032 OVC041 03/00 A3002 RMK AO2 =
2017-11-22 10:34 METAR KART 221534Z AUTO 27004KT 10SM BKN024 OVC043 03/01 A3003 RMK AO2 T00330011
                 =
2017-11-22 09:56 METAR KART 221456Z AUTO 25003KT 10SM OVC047 03/01 A3003 RMK AO2 SLP171 60001
                 T00280011 50003 =
2017-11-22 08:56 METAR KART 221356Z AUTO 18003KT 10SM OVC047 02/02 A3004 RMK AO2 SLP175 T00170017
                 =
2017-11-22 07:56 METAR KART 221256Z AUTO 00000KT 10SM BKN037 02/02 A3002 RMK AO2 RAE53UPB53E55
                 SLP169 P0001 T00170017 =
2017-11-22 07:54 METAR KART 221254Z AUTO 18003KT 10SM UP FEW012 OVC035 02/02 A3002 RMK AO2
                 RAE53UPB53 P0001 =
2017-11-22 07:40 METAR KART 221240Z AUTO 28005KT 6SM -RA BR SCT009 SCT014 OVC025 01/01 A3001 RMK
                 AO2 P0001 T00110011 =
2017-11-22 07:29 METAR KART 221229Z AUTO 28006KT 5SM -RA BR SCT008 BKN014 OVC021 01/01 A3001 RMK
                 AO2 P0001 T00110011 =
2017-11-22 06:56 METAR KART 221156Z AUTO 27004KT 6SM -RA BR FEW008 SCT017 OVC025 02/01 A2999 RMK
                 AO2 SLP159 P0002 60017 70017 T00170011 10078 20011 51017 =
2017-11-22 05:56 METAR KART 221056Z AUTO 29005KT 3SM -RA BR FEW007 SCT011 OVC018 02/02 A2997 RMK
                 AO2 SLP153 P0006 T00170017 =
2017-11-22 05:18 METAR KART 221018Z AUTO 30008KT 3SM -RA BR OVC009 02/02 A2995 RMK AO2 CIG
                 007V012 P0003 T00220017 =
2017-11-22 04:56 METAR KART 220956Z AUTO 29006KT 3SM RA BR OVC010 03/02 A2994 RMK AO2 CIG 008V014
                 SLP142 P0005 T00280022 =
2017-11-22 04:39 METAR KART 220939Z AUTO 28005KT 4SM -RA BR OVC011 03/02 A2993 RMK AO2 P0003
                 T00280022 =
2017-11-22 04:06 METAR KART 220906Z AUTO 29004KT 5SM -RA BR BKN009 OVC021 03/03 A2991 RMK AO2 CIG
                 007V011 P0001 T00280028 =
2017-11-22 03:56 METAR KART 220856Z AUTO 29007G15KT 5SM -RA BR SCT009 OVC021 03/02 A2991 RMK AO2
                 SLP129 P0001 60004 T00330022 53016 =
2017-11-22 03:24 METAR KART 220824Z AUTO 30006KT 6SM -RA BR FEW008 BKN019 OVC050 03/03 A2989 RMK
                 AO2 P0000 T00330028 =
2017-11-22 03:16 METAR KART 220816Z AUTO 32010KT 10SM -RA FEW009 SCT012 OVC050 03/03 A2989 RMK
                 AO2 P0000 T00330028 =
2017-11-22 03:05 METAR KART 220805Z AUTO 30013KT 8SM -RA BKN009 BKN014 OVC048 04/04 A2988 RMK AO2
                 P0000 T00440039 =
2017-11-22 02:55 METAR KART 220755Z AUTO 29006KT 6SM -RA BR SCT007 SCT011 OVC047 05/05 A2987 RMK
                 AO2 SLP117 P0001 T00500050 =
2017-11-22 02:54 METAR KART 220754Z AUTO 29006KT 6SM -RA BR SCT007 SCT011 OVC047 06/05 A2987 RMK
                 AO2 P0001 =
2017-11-22 02:19 METAR KART 220719Z AUTO 27007KT 3SM -RA BR BKN008 BKN033 OVC049 06/06 A2988 RMK
                 AO2 P0000 T00610061 =

Support USWX by starting your Amazon purchase here.